sensor_id;sensor_type;location;lat;lon;timestamp;P1;durP1;ratioP1;P2;durP2;ratioP2
2684;SDS011;1352;48.446;9.156;2022-11-13T00:01:20;11.10;;;9.23;;
2684;SDS011;1352;48.446;9.156;2022-11-13T00:03:48;9.90;;;8.10;;
2684;SDS011;1352;48.446;9.156;2022-11-13T00:06:17;8.00;;;7.20;;
2684;SDS011;1352;48.446;9.156;2022-11-13T00:08:45;8.77;;;7.93;;
2684;SDS011;1352;48.446;9.156;2022-11-13T00:11:13;8.60;;;7.80;;
2684;SDS011;1352;48.446;9.156;2022-11-13T00:13:42;8.97;;;8.10;;
2684;SDS011;1352;48.446;9.156;2022-11-13T00:16:11;9.20;;;8.30;;
2684;SDS011;1352;48.446;9.156;2022-11-13T00:18:40;11.80;;;8.83;;
2684;SDS011;1352;48.446;9.156;2022-11-13T00:21:08;9.00;;;8.10;;
2684;SDS011;1352;48.446;9.156;2022-11-13T00:23:43;8.80;;;7.73;;
2684;SDS011;1352;48.446;9.156;2022-11-13T00:26:13;12.20;;;9.20;;
2684;SDS011;1352;48.446;9.156;2022-11-13T00:28:56;9.80;;;8.40;;
2684;SDS011;1352;48.446;9.156;2022-11-13T00:31:26;11.07;;;9.70;;
2684;SDS011;1352;48.446;9.156;2022-11-13T00:33:58;11.90;;;10.60;;
2684;SDS011;1352;48.446;9.156;2022-11-13T00:36:29;12.03;;;10.10;;
2684;SDS011;1352;48.446;9.156;2022-11-13T00:38:57;10.33;;;9.33;;
2684;SDS011;1352;48.446;9.156;2022-11-13T00:41:24;9.20;;;8.07;;
2684;SDS011;1352;48.446;9.156;2022-11-13T00:43:51;9.30;;;8.40;;
2684;SDS011;1352;48.446;9.156;2022-11-13T00:46:22;10.37;;;9.37;;
2684;SDS011;1352;48.446;9.156;2022-11-13T00:48:49;10.37;;;9.33;;
2684;SDS011;1352;48.446;9.156;2022-11-13T00:51:19;13.10;;;11.23;;
2684;SDS011;1352;48.446;9.156;2022-11-13T00:53:51;14.07;;;11.77;;
2684;SDS011;1352;48.446;9.156;2022-11-13T00:59:05;15.97;;;12.03;;
2684;SDS011;1352;48.446;9.156;2022-11-13T01:01:35;13.67;;;11.83;;
2684;SDS011;1352;48.446;9.156;2022-11-13T01:04:06;14.60;;;11.20;;
2684;SDS011;1352;48.446;9.156;2022-11-13T01:06:34;11.27;;;10.07;;
2684;SDS011;1352;48.446;9.156;2022-11-13T01:09:04;14.70;;;11.70;;
2684;SDS011;1352;48.446;9.156;2022-11-13T01:11:40;13.00;;;11.40;;
2684;SDS011;1352;48.446;9.156;2022-11-13T01:14:09;14.90;;;11.30;;
2684;SDS011;1352;48.446;9.156;2022-11-13T01:16:36;15.17;;;11.30;;
2684;SDS011;1352;48.446;9.156;2022-11-13T01:19:04;11.97;;;10.37;;
2684;SDS011;1352;48.446;9.156;2022-11-13T01:21:33;18.00;;;12.03;;
2684;SDS011;1352;48.446;9.156;2022-11-13T01:24:02;12.70;;;11.40;;
2684;SDS011;1352;48.446;9.156;2022-11-13T01:26:52;17.30;;;12.50;;
2684;SDS011;1352;48.446;9.156;2022-11-13T01:29:33;13.77;;;12.03;;
2684;SDS011;1352;48.446;9.156;2022-11-13T01:32:03;16.70;;;11.17;;
2684;SDS011;1352;48.446;9.156;2022-11-13T01:34:39;22.60;;;13.00;;
2684;SDS011;1352;48.446;9.156;2022-11-13T01:37:07;35.17;;;12.00;;
2684;SDS011;1352;48.446;9.156;2022-11-13T01:39:34;44.63;;;13.50;;
2684;SDS011;1352;48.446;9.156;2022-11-13T01:42:03;83.00;;;19.53;;
2684;SDS011;1352;48.446;9.156;2022-11-13T01:44:46;45.17;;;14.53;;
2684;SDS011;1352;48.446;9.156;2022-11-13T01:47:36;38.00;;;14.10;;
2684;SDS011;1352;48.446;9.156;2022-11-13T01:50:08;18.93;;;11.30;;
2684;SDS011;1352;48.446;9.156;2022-11-13T01:52:40;22.43;;;11.53;;
2684;SDS011;1352;48.446;9.156;2022-11-13T01:55:12;44.97;;;12.50;;
2684;SDS011;1352;48.446;9.156;2022-11-13T01:57:54;17.23;;;11.07;;
2684;SDS011;1352;48.446;9.156;2022-11-13T02:00:25;25.87;;;11.43;;
2684;SDS011;1352;48.446;9.156;2022-11-13T02:03:02;18.93;;;11.63;;
2684;SDS011;1352;48.446;9.156;2022-11-13T02:05:35;14.47;;;11.80;;
2684;SDS011;1352;48.446;9.156;2022-11-13T02:08:03;23.85;;;12.45;;
2684;SDS011;1352;48.446;9.156;2022-11-13T02:10:36;24.85;;;12.55;;
2684;SDS011;1352;48.446;9.156;2022-11-13T02:13:05;32.65;;;12.90;;
2684;SDS011;1352;48.446;9.156;2022-11-13T02:15:33;19.60;;;12.47;;
2684;SDS011;1352;48.446;9.156;2022-11-13T02:18:03;20.63;;;10.40;;
2684;SDS011;1352;48.446;9.156;2022-11-13T02:20:54;28.97;;;13.50;;
2684;SDS011;1352;48.446;9.156;2022-11-13T02:23:34;23.57;;;12.70;;
2684;SDS011;1352;48.446;9.156;2022-11-13T02:26:11;19.30;;;13.83;;
2684;SDS011;1352;48.446;9.156;2022-11-13T02:28:38;19.43;;;13.00;;
2684;SDS011;1352;48.446;9.156;2022-11-13T02:31:16;15.87;;;13.03;;
2684;SDS011;1352;48.446;9.156;2022-11-13T02:34:05;13.40;;;11.93;;
2684;SDS011;1352;48.446;9.156;2022-11-13T02:36:46;12.80;;;11.70;;
2684;SDS011;1352;48.446;9.156;2022-11-13T02:39:29;33.33;;;13.70;;
2684;SDS011;1352;48.446;9.156;2022-11-13T02:45:24;12.70;;;11.53;;
2684;SDS011;1352;48.446;9.156;2022-11-13T02:48:35;38.37;;;14.30;;
2684;SDS011;1352;48.446;9.156;2022-11-13T02:54:12;11.13;;;9.93;;
2684;SDS011;1352;48.446;9.156;2022-11-13T02:56:48;11.30;;;10.10;;
2684;SDS011;1352;48.446;9.156;2022-11-13T02:59:31;11.40;;;10.37;;
2684;SDS011;1352;48.446;9.156;2022-11-13T03:02:04;43.10;;;14.00;;
2684;SDS011;1352;48.446;9.156;2022-11-13T03:04:32;48.77;;;13.93;;
2684;SDS011;1352;48.446;9.156;2022-11-13T03:07:08;45.70;;;16.70;;
2684;SDS011;1352;48.446;9.156;2022-11-13T03:09:36;49.67;;;14.30;;
2684;SDS011;1352;48.446;9.156;2022-11-13T03:12:16;40.97;;;13.50;;
2684;SDS011;1352;48.446;9.156;2022-11-13T03:14:49;33.87;;;11.13;;
2684;SDS011;1352;48.446;9.156;2022-11-13T03:17:19;34.47;;;11.37;;
2684;SDS011;1352;48.446;9.156;2022-11-13T03:19:49;27.90;;;10.97;;
2684;SDS011;1352;48.446;9.156;2022-11-13T03:22:24;29.50;;;11.73;;
2684;SDS011;1352;48.446;9.156;2022-11-13T04:04:12;15.77;;;11.63;;
2684;SDS011;1352;48.446;9.156;2022-11-13T04:06:39;14.83;;;10.53;;
2684;SDS011;1352;48.446;9.156;2022-11-13T04:09:07;21.20;;;10.70;;
2684;SDS011;1352;48.446;9.156;2022-11-13T04:11:34;12.83;;;10.90;;
2684;SDS011;1352;48.446;9.156;2022-11-13T04:14:01;22.43;;;13.10;;
2684;SDS011;1352;48.446;9.156;2022-11-13T04:16:28;18.70;;;12.60;;
2684;SDS011;1352;48.446;9.156;2022-11-13T04:18:55;27.30;;;12.30;;
2684;SDS011;1352;48.446;9.156;2022-11-13T04:21:23;30.53;;;13.40;;
2684;SDS011;1352;48.446;9.156;2022-11-13T04:23:52;37.17;;;14.57;;
2684;SDS011;1352;48.446;9.156;2022-11-13T04:26:18;30.10;;;13.97;;
2684;SDS011;1352;48.446;9.156;2022-11-13T04:28:45;45.10;;;15.07;;
2684;SDS011;1352;48.446;9.156;2022-11-13T04:31:12;86.43;;;16.63;;
2684;SDS011;1352;48.446;9.156;2022-11-13T04:33:39;105.33;;;20.03;;
2684;SDS011;1352;48.446;9.156;2022-11-13T04:36:06;91.77;;;18.33;;
2684;SDS011;1352;48.446;9.156;2022-11-13T04:38:35;123.07;;;22.23;;
2684;SDS011;1352;48.446;9.156;2022-11-13T04:41:02;28.87;;;12.43;;
2684;SDS011;1352;48.446;9.156;2022-11-13T04:43:46;81.17;;;18.90;;
2684;SDS011;1352;48.446;9.156;2022-11-13T04:46:14;27.70;;;13.17;;
2684;SDS011;1352;48.446;9.156;2022-11-13T04:48:40;22.17;;;11.97;;
2684;SDS011;1352;48.446;9.156;2022-11-13T04:51:07;42.87;;;15.73;;
2684;SDS011;1352;48.446;9.156;2022-11-13T04:53:36;55.73;;;15.57;;
2684;SDS011;1352;48.446;9.156;2022-11-13T04:56:03;59.70;;;15.30;;
2684;SDS011;1352;48.446;9.156;2022-11-13T04:58:30;90.97;;;20.23;;
2684;SDS011;1352;48.446;9.156;2022-11-13T05:00:57;57.90;;;14.10;;
2684;SDS011;1352;48.446;9.156;2022-11-13T05:03:24;85.00;;;19.33;;
2684;SDS011;1352;48.446;9.156;2022-11-13T05:05:51;25.07;;;11.50;;
2684;SDS011;1352;48.446;9.156;2022-11-13T05:08:18;70.73;;;16.43;;
2684;SDS011;1352;48.446;9.156;2022-11-13T05:10:47;30.87;;;12.77;;
2684;SDS011;1352;48.446;9.156;2022-11-13T05:13:14;23.40;;;10.67;;
2684;SDS011;1352;48.446;9.156;2022-11-13T05:15:41;22.23;;;9.20;;
2684;SDS011;1352;48.446;9.156;2022-11-13T05:18:08;24.10;;;10.43;;
2684;SDS011;1352;48.446;9.156;2022-11-13T05:20:35;28.30;;;11.53;;
2684;SDS011;1352;48.446;9.156;2022-11-13T05:23:02;16.47;;;9.60;;
2684;SDS011;1352;48.446;9.156;2022-11-13T05:25:29;9.10;;;8.20;;
2684;SDS011;1352;48.446;9.156;2022-11-13T05:27:58;8.97;;;8.27;;
2684;SDS011;1352;48.446;9.156;2022-11-13T05:30:25;8.97;;;8.27;;
2684;SDS011;1352;48.446;9.156;2022-11-13T05:32:52;8.20;;;7.40;;
2684;SDS011;1352;48.446;9.156;2022-11-13T05:35:19;53.33;;;13.77;;
2684;SDS011;1352;48.446;9.156;2022-11-13T05:37:49;11.37;;;7.40;;
2684;SDS011;1352;48.446;9.156;2022-11-13T05:40:16;10.10;;;9.00;;
2684;SDS011;1352;48.446;9.156;2022-11-13T05:42:43;10.13;;;8.57;;
2684;SDS011;1352;48.446;9.156;2022-11-13T05:45:12;8.77;;;7.93;;
2684;SDS011;1352;48.446;9.156;2022-11-13T05:47:39;9.47;;;8.63;;
2684;SDS011;1352;48.446;9.156;2022-11-13T05:50:06;13.80;;;8.57;;
2684;SDS011;1352;48.446;9.156;2022-11-13T05:52:34;12.80;;;9.60;;
2684;SDS011;1352;48.446;9.156;2022-11-13T05:55:01;12.80;;;9.63;;
2684;SDS011;1352;48.446;9.156;2022-11-13T05:57:28;11.90;;;10.63;;
2684;SDS011;1352;48.446;9.156;2022-11-13T05:59:55;31.63;;;13.37;;
2684;SDS011;1352;48.446;9.156;2022-11-13T06:02:24;31.37;;;12.43;;
2684;SDS011;1352;48.446;9.156;2022-11-13T06:04:51;23.33;;;12.80;;
2684;SDS011;1352;48.446;9.156;2022-11-13T06:07:18;47.97;;;14.87;;
2684;SDS011;1352;48.446;9.156;2022-11-13T06:09:45;32.83;;;13.73;;
2684;SDS011;1352;48.446;9.156;2022-11-13T06:12:12;46.67;;;15.83;;
2684;SDS011;1352;48.446;9.156;2022-11-13T06:14:39;40.43;;;13.40;;
2684;SDS011;1352;48.446;9.156;2022-11-13T06:17:06;41.03;;;16.10;;
2684;SDS011;1352;48.446;9.156;2022-11-13T06:19:34;20.97;;;13.27;;
2684;SDS011;1352;48.446;9.156;2022-11-13T06:22:01;37.50;;;14.13;;
2684;SDS011;1352;48.446;9.156;2022-11-13T06:24:28;15.20;;;12.47;;
2684;SDS011;1352;48.446;9.156;2022-11-13T06:26:55;13.80;;;12.37;;
2684;SDS011;1352;48.446;9.156;2022-11-13T06:29:22;12.13;;;11.00;;
2684;SDS011;1352;48.446;9.156;2022-11-13T06:31:49;14.13;;;11.33;;
2684;SDS011;1352;48.446;9.156;2022-11-13T06:34:16;12.80;;;11.60;;
2684;SDS011;1352;48.446;9.156;2022-11-13T06:36:45;12.33;;;11.13;;
2684;SDS011;1352;48.446;9.156;2022-11-13T06:39:12;12.40;;;11.20;;
2684;SDS011;1352;48.446;9.156;2022-11-13T06:41:39;12.63;;;11.47;;
2684;SDS011;1352;48.446;9.156;2022-11-13T06:44:06;12.07;;;10.63;;
2684;SDS011;1352;48.446;9.156;2022-11-13T06:46:33;11.97;;;10.90;;
2684;SDS011;1352;48.446;9.156;2022-11-13T06:49:03;10.57;;;9.57;;
2684;SDS011;1352;48.446;9.156;2022-11-13T06:51:30;12.40;;;9.80;;
2684;SDS011;1352;48.446;9.156;2022-11-13T06:53:59;10.57;;;9.50;;
2684;SDS011;1352;48.446;9.156;2022-11-13T06:56:26;10.43;;;9.47;;
2684;SDS011;1352;48.446;9.156;2022-11-13T06:58:53;8.97;;;8.13;;
2684;SDS011;1352;48.446;9.156;2022-11-13T07:01:21;10.30;;;9.30;;
2684;SDS011;1352;48.446;9.156;2022-11-13T07:03:50;10.70;;;9.80;;
2684;SDS011;1352;48.446;9.156;2022-11-13T07:06:18;10.60;;;9.60;;
2684;SDS011;1352;48.446;9.156;2022-11-13T07:08:46;10.53;;;9.57;;
2684;SDS011;1352;48.446;9.156;2022-11-13T07:11:19;9.23;;;8.43;;
2684;SDS011;1352;48.446;9.156;2022-11-13T07:13:48;11.03;;;10.00;;
2684;SDS011;1352;48.446;9.156;2022-11-13T07:16:16;10.67;;;9.60;;
2684;SDS011;1352;48.446;9.156;2022-11-13T07:18:43;9.57;;;8.57;;
2684;SDS011;1352;48.446;9.156;2022-11-13T07:21:15;10.30;;;9.30;;
2684;SDS011;1352;48.446;9.156;2022-11-13T07:23:42;10.47;;;9.00;;
2684;SDS011;1352;48.446;9.156;2022-11-13T07:26:09;10.43;;;9.33;;
2684;SDS011;1352;48.446;9.156;2022-11-13T07:28:38;10.03;;;9.13;;
2684;SDS011;1352;48.446;9.156;2022-11-13T07:31:05;9.80;;;8.80;;
2684;SDS011;1352;48.446;9.156;2022-11-13T07:33:33;10.30;;;9.40;;
2684;SDS011;1352;48.446;9.156;2022-11-13T07:36:03;10.33;;;9.30;;
2684;SDS011;1352;48.446;9.156;2022-11-13T07:38:31;12.67;;;10.30;;
2684;SDS011;1352;48.446;9.156;2022-11-13T07:40:58;11.80;;;10.57;;
2684;SDS011;1352;48.446;9.156;2022-11-13T07:43:25;12.10;;;9.73;;
2684;SDS011;1352;48.446;9.156;2022-11-13T07:45:54;11.67;;;10.67;;
2684;SDS011;1352;48.446;9.156;2022-11-13T07:48:23;11.20;;;10.20;;
2684;SDS011;1352;48.446;9.156;2022-11-13T07:50:51;13.07;;;11.63;;
2684;SDS011;1352;48.446;9.156;2022-11-13T07:53:19;15.83;;;14.13;;
2684;SDS011;1352;48.446;9.156;2022-11-13T07:55:47;20.30;;;18.10;;
2684;SDS011;1352;48.446;9.156;2022-11-13T07:58:14;19.67;;;17.23;;
2684;SDS011;1352;48.446;9.156;2022-11-13T08:00:44;19.60;;;17.20;;
2684;SDS011;1352;48.446;9.156;2022-11-13T08:03:13;18.37;;;16.47;;
2684;SDS011;1352;48.446;9.156;2022-11-13T08:05:45;17.03;;;15.43;;
2684;SDS011;1352;48.446;9.156;2022-11-13T08:08:12;16.30;;;14.70;;
2684;SDS011;1352;48.446;9.156;2022-11-13T08:10:40;15.70;;;14.10;;
2684;SDS011;1352;48.446;9.156;2022-11-13T08:13:08;18.30;;;14.30;;
2684;SDS011;1352;48.446;9.156;2022-11-13T08:15:36;16.23;;;14.57;;
2684;SDS011;1352;48.446;9.156;2022-11-13T08:18:03;15.77;;;14.27;;
2684;SDS011;1352;48.446;9.156;2022-11-13T08:20:33;16.80;;;15.07;;
2684;SDS011;1352;48.446;9.156;2022-11-13T08:23:00;16.57;;;13.30;;
2684;SDS011;1352;48.446;9.156;2022-11-13T08:25:29;19.40;;;14.50;;
2684;SDS011;1352;48.446;9.156;2022-11-13T08:27:58;18.40;;;15.40;;
2684;SDS011;1352;48.446;9.156;2022-11-13T08:30:25;15.30;;;13.73;;
2684;SDS011;1352;48.446;9.156;2022-11-13T08:32:56;15.50;;;14.00;;
2684;SDS011;1352;48.446;9.156;2022-11-13T08:35:24;16.67;;;15.07;;
2684;SDS011;1352;48.446;9.156;2022-11-13T08:37:56;15.70;;;14.20;;
2684;SDS011;1352;48.446;9.156;2022-11-13T08:40:30;13.47;;;12.13;;
2684;SDS011;1352;48.446;9.156;2022-11-13T08:43:02;12.97;;;11.70;;
2684;SDS011;1352;48.446;9.156;2022-11-13T08:45:30;24.23;;;12.63;;
2684;SDS011;1352;48.446;9.156;2022-11-13T08:48:01;12.90;;;11.57;;
2684;SDS011;1352;48.446;9.156;2022-11-13T08:50:29;30.20;;;13.00;;
2684;SDS011;1352;48.446;9.156;2022-11-13T08:52:59;43.67;;;14.80;;
2684;SDS011;1352;48.446;9.156;2022-11-13T08:55:27;15.20;;;10.70;;
2684;SDS011;1352;48.446;9.156;2022-11-13T08:57:56;36.93;;;12.57;;
2684;SDS011;1352;48.446;9.156;2022-11-13T09:00:25;11.20;;;9.83;;
2684;SDS011;1352;48.446;9.156;2022-11-13T09:02:56;64.30;;;16.40;;
2684;SDS011;1352;48.446;9.156;2022-11-13T09:05:28;50.63;;;13.00;;
2684;SDS011;1352;48.446;9.156;2022-11-13T09:07:56;108.70;;;18.00;;
2684;SDS011;1352;48.446;9.156;2022-11-13T09:10:28;27.03;;;11.23;;
2684;SDS011;1352;48.446;9.156;2022-11-13T09:12:56;19.87;;;12.17;;
2684;SDS011;1352;48.446;9.156;2022-11-13T09:15:25;37.13;;;13.70;;
2684;SDS011;1352;48.446;9.156;2022-11-13T09:17:55;20.23;;;11.30;;
2684;SDS011;1352;48.446;9.156;2022-11-13T09:20:26;29.60;;;11.60;;
2684;SDS011;1352;48.446;9.156;2022-11-13T09:22:57;56.23;;;12.90;;
2684;SDS011;1352;48.446;9.156;2022-11-13T09:25:27;52.10;;;13.00;;
2684;SDS011;1352;48.446;9.156;2022-11-13T09:27:58;23.03;;;10.87;;
2684;SDS011;1352;48.446;9.156;2022-11-13T09:30:26;10.23;;;8.67;;
2684;SDS011;1352;48.446;9.156;2022-11-13T09:32:56;20.23;;;10.37;;
2684;SDS011;1352;48.446;9.156;2022-11-13T09:35:28;37.73;;;13.40;;
2684;SDS011;1352;48.446;9.156;2022-11-13T09:38:02;9.60;;;8.70;;
2684;SDS011;1352;48.446;9.156;2022-11-13T09:40:32;29.47;;;12.97;;
2684;SDS011;1352;48.446;9.156;2022-11-13T09:43:03;20.33;;;12.00;;
2684;SDS011;1352;48.446;9.156;2022-11-13T09:45:37;11.23;;;9.50;;
2684;SDS011;1352;48.446;9.156;2022-11-13T09:48:11;14.77;;;11.60;;
2684;SDS011;1352;48.446;9.156;2022-11-13T09:50:46;22.47;;;13.27;;
2684;SDS011;1352;48.446;9.156;2022-11-13T09:53:14;14.83;;;10.80;;
2684;SDS011;1352;48.446;9.156;2022-11-13T09:55:46;36.83;;;14.00;;
2684;SDS011;1352;48.446;9.156;2022-11-13T09:58:25;36.77;;;15.73;;
2684;SDS011;1352;48.446;9.156;2022-11-13T10:01:02;23.50;;;12.43;;
2684;SDS011;1352;48.446;9.156;2022-11-13T10:03:39;25.33;;;13.57;;
2684;SDS011;1352;48.446;9.156;2022-11-13T10:06:14;35.23;;;14.93;;
2684;SDS011;1352;48.446;9.156;2022-11-13T10:08:49;28.83;;;14.40;;
2684;SDS011;1352;48.446;9.156;2022-11-13T10:11:35;30.57;;;14.73;;
2684;SDS011;1352;48.446;9.156;2022-11-13T10:14:14;42.33;;;14.40;;
2684;SDS011;1352;48.446;9.156;2022-11-13T10:16:47;21.03;;;13.43;;
2684;SDS011;1352;48.446;9.156;2022-11-13T10:19:20;27.77;;;15.03;;
2684;SDS011;1352;48.446;9.156;2022-11-13T10:21:56;24.73;;;13.87;;
2684;SDS011;1352;48.446;9.156;2022-11-13T10:24:32;51.23;;;15.40;;
2684;SDS011;1352;48.446;9.156;2022-11-13T10:27:08;36.07;;;15.27;;
2684;SDS011;1352;48.446;9.156;2022-11-13T10:29:40;17.90;;;14.50;;
2684;SDS011;1352;48.446;9.156;2022-11-13T10:32:14;15.10;;;13.50;;
2684;SDS011;1352;48.446;9.156;2022-11-13T10:34:45;14.70;;;13.20;;
2684;SDS011;1352;48.446;9.156;2022-11-13T10:37:23;15.10;;;13.50;;
2684;SDS011;1352;48.446;9.156;2022-11-13T10:40:00;15.30;;;13.70;;
2684;SDS011;1352;48.446;9.156;2022-11-13T10:42:35;15.60;;;13.83;;
2684;SDS011;1352;48.446;9.156;2022-11-13T10:45:13;15.90;;;14.20;;
2684;SDS011;1352;48.446;9.156;2022-11-13T10:47:47;15.77;;;13.70;;
2684;SDS011;1352;48.446;9.156;2022-11-13T10:50:20;14.67;;;13.27;;
2684;SDS011;1352;48.446;9.156;2022-11-13T10:52:51;13.60;;;11.97;;
2684;SDS011;1352;48.446;9.156;2022-11-13T10:55:21;14.47;;;12.97;;
2684;SDS011;1352;48.446;9.156;2022-11-13T10:57:56;13.43;;;12.03;;
2684;SDS011;1352;48.446;9.156;2022-11-13T11:00:25;13.10;;;11.70;;
2684;SDS011;1352;48.446;9.156;2022-11-13T11:03:06;13.80;;;12.40;;
2684;SDS011;1352;48.446;9.156;2022-11-13T11:05:34;15.10;;;12.93;;
2684;SDS011;1352;48.446;9.156;2022-11-13T11:08:07;14.43;;;12.80;;
2684;SDS011;1352;48.446;9.156;2022-11-13T11:10:36;14.33;;;12.83;;
2684;SDS011;1352;48.446;9.156;2022-11-13T11:13:28;14.33;;;12.83;;
2684;SDS011;1352;48.446;9.156;2022-11-13T11:16:01;14.07;;;12.67;;
2684;SDS011;1352;48.446;9.156;2022-11-13T11:18:48;14.37;;;12.90;;
2684;SDS011;1352;48.446;9.156;2022-11-13T11:21:27;16.93;;;13.90;;
2684;SDS011;1352;48.446;9.156;2022-11-13T11:24:05;14.23;;;12.73;;
2684;SDS011;1352;48.446;9.156;2022-11-13T11:26:40;14.73;;;13.17;;
2684;SDS011;1352;48.446;9.156;2022-11-13T11:29:17;14.90;;;13.40;;
2684;SDS011;1352;48.446;9.156;2022-11-13T11:31:53;15.60;;;13.60;;
2684;SDS011;1352;48.446;9.156;2022-11-13T11:34:25;16.47;;;14.93;;
2684;SDS011;1352;48.446;9.156;2022-11-13T11:37:00;16.70;;;15.00;;
2684;SDS011;1352;48.446;9.156;2022-11-13T11:39:34;15.77;;;14.03;;
2684;SDS011;1352;48.446;9.156;2022-11-13T11:42:11;16.67;;;14.97;;
2684;SDS011;1352;48.446;9.156;2022-11-13T11:44:54;15.40;;;13.83;;
2684;SDS011;1352;48.446;9.156;2022-11-13T11:47:29;17.83;;;13.87;;
2684;SDS011;1352;48.446;9.156;2022-11-13T11:49:57;18.00;;;16.10;;
2684;SDS011;1352;48.446;9.156;2022-11-13T11:52:29;18.70;;;16.70;;
2684;SDS011;1352;48.446;9.156;2022-11-13T11:58:04;17.40;;;15.50;;
2684;SDS011;1352;48.446;9.156;2022-11-13T12:00:44;17.20;;;15.50;;
2684;SDS011;1352;48.446;9.156;2022-11-13T12:06:22;17.60;;;15.70;;
2684;SDS011;1352;48.446;9.156;2022-11-13T12:09:03;18.70;;;16.90;;
2684;SDS011;1352;48.446;9.156;2022-11-13T12:11:41;19.27;;;17.03;;
2684;SDS011;1352;48.446;9.156;2022-11-13T12:14:20;18.17;;;16.40;;
2684;SDS011;1352;48.446;9.156;2022-11-13T12:17:00;18.30;;;16.40;;
2684;SDS011;1352;48.446;9.156;2022-11-13T12:19:38;18.03;;;16.13;;
2684;SDS011;1352;48.446;9.156;2022-11-13T12:22:14;20.10;;;16.70;;
2684;SDS011;1352;48.446;9.156;2022-11-13T12:24:54;17.13;;;15.40;;
2684;SDS011;1352;48.446;9.156;2022-11-13T12:27:37;16.63;;;14.90;;
2684;SDS011;1352;48.446;9.156;2022-11-13T12:30:13;16.10;;;14.40;;
2684;SDS011;1352;48.446;9.156;2022-11-13T12:32:51;15.27;;;13.77;;
2684;SDS011;1352;48.446;9.156;2022-11-13T12:35:32;16.40;;;14.73;;
2684;SDS011;1352;48.446;9.156;2022-11-13T12:38:01;15.57;;;13.97;;
2684;SDS011;1352;48.446;9.156;2022-11-13T12:40:35;16.60;;;14.90;;
2684;SDS011;1352;48.446;9.156;2022-11-13T12:43:16;16.30;;;14.53;;
2684;SDS011;1352;48.446;9.156;2022-11-13T12:46:05;14.87;;;13.40;;
2684;SDS011;1352;48.446;9.156;2022-11-13T12:48:37;14.37;;;12.90;;
2684;SDS011;1352;48.446;9.156;2022-11-13T12:51:07;16.73;;;14.30;;
2684;SDS011;1352;48.446;9.156;2022-11-13T12:53:43;15.80;;;14.17;;
2684;SDS011;1352;48.446;9.156;2022-11-13T12:56:13;14.77;;;13.33;;
2684;SDS011;1352;48.446;9.156;2022-11-13T12:58:51;17.53;;;15.57;;
2684;SDS011;1352;48.446;9.156;2022-11-13T13:01:19;16.87;;;15.17;;
2684;SDS011;1352;48.446;9.156;2022-11-13T13:04:06;17.33;;;15.53;;
2684;SDS011;1352;48.446;9.156;2022-11-13T13:07:00;15.83;;;14.23;;
2684;SDS011;1352;48.446;9.156;2022-11-13T13:09:45;16.37;;;14.67;;
2684;SDS011;1352;48.446;9.156;2022-11-13T13:12:22;15.37;;;13.77;;
2684;SDS011;1352;48.446;9.156;2022-11-13T13:15:07;15.13;;;13.60;;
2684;SDS011;1352;48.446;9.156;2022-11-13T13:18:00;16.67;;;15.00;;
2684;SDS011;1352;48.446;9.156;2022-11-13T13:20:32;14.70;;;13.20;;
2684;SDS011;1352;48.446;9.156;2022-11-13T13:23:02;15.43;;;13.87;;
2684;SDS011;1352;48.446;9.156;2022-11-13T13:25:30;17.63;;;14.70;;
2684;SDS011;1352;48.446;9.156;2022-11-13T13:28:00;14.57;;;13.17;;
2684;SDS011;1352;48.446;9.156;2022-11-13T13:30:35;14.57;;;13.17;;
2684;SDS011;1352;48.446;9.156;2022-11-13T13:33:19;14.73;;;13.13;;
2684;SDS011;1352;48.446;9.156;2022-11-13T13:35:53;15.60;;;11.90;;
2684;SDS011;1352;48.446;9.156;2022-11-13T13:38:27;13.67;;;11.93;;
2684;SDS011;1352;48.446;9.156;2022-11-13T13:41:05;15.27;;;12.27;;
2684;SDS011;1352;48.446;9.156;2022-11-13T13:43:45;14.07;;;11.03;;
2684;SDS011;1352;48.446;9.156;2022-11-13T13:46:21;13.23;;;11.43;;
2684;SDS011;1352;48.446;9.156;2022-11-13T13:48:54;12.47;;;11.17;;
2684;SDS011;1352;48.446;9.156;2022-11-13T13:51:25;13.63;;;11.77;;
2684;SDS011;1352;48.446;9.156;2022-11-13T13:53:55;12.90;;;11.60;;
2684;SDS011;1352;48.446;9.156;2022-11-13T13:56:24;14.70;;;11.87;;
2684;SDS011;1352;48.446;9.156;2022-11-13T13:58:52;13.87;;;12.20;;
2684;SDS011;1352;48.446;9.156;2022-11-13T14:01:27;13.77;;;12.47;;
2684;SDS011;1352;48.446;9.156;2022-11-13T14:04:03;13.10;;;10.87;;
2684;SDS011;1352;48.446;9.156;2022-11-13T14:06:45;13.60;;;11.63;;
2684;SDS011;1352;48.446;9.156;2022-11-13T14:09:17;16.53;;;12.87;;
2684;SDS011;1352;48.446;9.156;2022-11-13T14:11:45;11.40;;;10.33;;
2684;SDS011;1352;48.446;9.156;2022-11-13T14:14:15;13.17;;;11.93;;
2684;SDS011;1352;48.446;9.156;2022-11-13T14:16:47;13.23;;;11.90;;
2684;SDS011;1352;48.446;9.156;2022-11-13T14:19:15;13.30;;;11.77;;
2684;SDS011;1352;48.446;9.156;2022-11-13T14:21:45;13.20;;;11.80;;
2684;SDS011;1352;48.446;9.156;2022-11-13T14:24:15;13.60;;;12.30;;
2684;SDS011;1352;48.446;9.156;2022-11-13T14:26:50;12.23;;;10.90;;
2684;SDS011;1352;48.446;9.156;2022-11-13T14:29:25;11.73;;;10.27;;
2684;SDS011;1352;48.446;9.156;2022-11-13T14:32:03;14.80;;;12.60;;
2684;SDS011;1352;48.446;9.156;2022-11-13T14:34:31;12.00;;;10.63;;
2684;SDS011;1352;48.446;9.156;2022-11-13T14:37:24;14.43;;;12.30;;
2684;SDS011;1352;48.446;9.156;2022-11-13T14:39:59;13.10;;;10.90;;
2684;SDS011;1352;48.446;9.156;2022-11-13T14:42:30;11.60;;;9.80;;
2684;SDS011;1352;48.446;9.156;2022-11-13T14:45:13;11.50;;;9.63;;
2684;SDS011;1352;48.446;9.156;2022-11-13T14:47:42;10.90;;;9.80;;
2684;SDS011;1352;48.446;9.156;2022-11-13T14:50:19;10.70;;;9.60;;
2684;SDS011;1352;48.446;9.156;2022-11-13T14:52:57;15.70;;;10.10;;
2684;SDS011;1352;48.446;9.156;2022-11-13T14:55:26;13.10;;;11.33;;
2684;SDS011;1352;48.446;9.156;2022-11-13T14:57:54;11.83;;;10.57;;
2684;SDS011;1352;48.446;9.156;2022-11-13T15:00:26;13.60;;;11.17;;
2684;SDS011;1352;48.446;9.156;2022-11-13T15:02:57;12.97;;;10.50;;
2684;SDS011;1352;48.446;9.156;2022-11-13T15:05:27;12.90;;;11.53;;
2684;SDS011;1352;48.446;9.156;2022-11-13T15:07:56;11.10;;;9.60;;
2684;SDS011;1352;48.446;9.156;2022-11-13T15:10:26;10.80;;;9.70;;
2684;SDS011;1352;48.446;9.156;2022-11-13T15:12:55;13.33;;;10.60;;
2684;SDS011;1352;48.446;9.156;2022-11-13T15:15:24;13.10;;;11.67;;
2684;SDS011;1352;48.446;9.156;2022-11-13T15:17:55;13.83;;;11.97;;
2684;SDS011;1352;48.446;9.156;2022-11-13T15:20:23;13.27;;;11.10;;
2684;SDS011;1352;48.446;9.156;2022-11-13T15:22:53;14.10;;;11.63;;
2684;SDS011;1352;48.446;9.156;2022-11-13T15:25:23;14.90;;;11.77;;
2684;SDS011;1352;48.446;9.156;2022-11-13T15:27:51;17.00;;;12.93;;
2684;SDS011;1352;48.446;9.156;2022-11-13T15:30:18;15.90;;;14.10;;
2684;SDS011;1352;48.446;9.156;2022-11-13T15:32:45;13.90;;;12.43;;
2684;SDS011;1352;48.446;9.156;2022-11-13T15:35:14;15.00;;;12.97;;
2684;SDS011;1352;48.446;9.156;2022-11-13T15:37:43;14.83;;;12.80;;
2684;SDS011;1352;48.446;9.156;2022-11-13T15:40:10;15.30;;;13.00;;
2684;SDS011;1352;48.446;9.156;2022-11-13T15:42:40;14.40;;;11.87;;
2684;SDS011;1352;48.446;9.156;2022-11-13T15:45:08;15.63;;;13.50;;
2684;SDS011;1352;48.446;9.156;2022-11-13T15:47:39;15.43;;;13.33;;
2684;SDS011;1352;48.446;9.156;2022-11-13T15:50:07;14.07;;;12.33;;
2684;SDS011;1352;48.446;9.156;2022-11-13T15:52:35;16.90;;;12.20;;
2684;SDS011;1352;48.446;9.156;2022-11-13T15:55:05;15.63;;;13.50;;
2684;SDS011;1352;48.446;9.156;2022-11-13T15:57:48;15.00;;;12.23;;
2684;SDS011;1352;48.446;9.156;2022-11-13T16:00:16;14.23;;;12.73;;
2684;SDS011;1352;48.446;9.156;2022-11-13T16:02:45;14.37;;;12.87;;
2684;SDS011;1352;48.446;9.156;2022-11-13T16:05:14;16.90;;;14.57;;
2684;SDS011;1352;48.446;9.156;2022-11-13T16:07:42;15.80;;;13.83;;
2684;SDS011;1352;48.446;9.156;2022-11-13T16:10:09;17.13;;;15.30;;
2684;SDS011;1352;48.446;9.156;2022-11-13T16:12:37;15.70;;;14.00;;